createdAt,value
2017-12-16T00:00:11.405Z,10.83
2017-12-16T00:02:37.572Z,9.37
2017-12-16T00:05:03.772Z,24.73
2017-12-16T00:07:29.947Z,11.60
2017-12-16T00:09:56.104Z,7.77
2017-12-16T00:12:22.305Z,14.03
2017-12-16T00:14:48.462Z,15.60
2017-12-16T00:17:14.640Z,8.23
2017-12-16T00:19:40.870Z,12.27
2017-12-16T00:22:07.059Z,19.77
2017-12-16T00:24:33.345Z,8.90
2017-12-16T00:26:59.546Z,9.07
2017-12-16T00:29:25.721Z,6.07
2017-12-16T00:31:51.902Z,13.20
2017-12-16T00:34:18.117Z,9.07
2017-12-16T00:36:44.320Z,19.80
2017-12-16T00:39:10.481Z,14.30
2017-12-16T00:41:36.695Z,9.23
2017-12-16T00:44:02.865Z,8.20
2017-12-16T00:46:29.062Z,9.17
2017-12-16T00:48:55.297Z,7.23
2017-12-16T00:51:21.493Z,12.40
2017-12-16T00:53:47.684Z,5.40
2017-12-16T00:56:13.877Z,5.00
2017-12-16T00:58:40.043Z,8.53
2017-12-16T01:01:06.201Z,7.60
2017-12-16T01:03:32.399Z,6.20
2017-12-16T01:05:58.556Z,2.33
2017-12-16T01:08:24.734Z,12.07
2017-12-16T01:10:51.003Z,11.83
2017-12-16T01:13:17.184Z,8.40
2017-12-16T01:15:43.361Z,10.90
2017-12-16T01:18:09.582Z,4.93
2017-12-16T01:20:35.766Z,8.60
2017-12-16T01:23:01.955Z,7.80
2017-12-16T01:25:28.177Z,5.90
2017-12-16T01:27:54.351Z,7.30
2017-12-16T01:30:20.523Z,16.00
2017-12-16T01:32:46.777Z,11.13
2017-12-16T01:35:12.970Z,8.10
2017-12-16T01:37:39.163Z,21.00
2017-12-16T01:40:05.394Z,5.80
2017-12-16T01:42:31.586Z,15.00
2017-12-16T01:44:57.766Z,11.20
2017-12-16T01:47:23.990Z,6.57
2017-12-16T01:49:50.305Z,21.97
2017-12-16T01:52:16.518Z,6.33
2017-12-16T01:54:42.749Z,6.17
2017-12-16T01:57:08.948Z,9.73
2017-12-16T01:59:35.142Z,14.10
2017-12-16T02:02:01.357Z,11.37
2017-12-16T02:04:27.678Z,14.83
2017-12-16T02:06:53.862Z,10.20
2017-12-16T02:09:20.082Z,14.50
2017-12-16T02:11:46.272Z,8.50
2017-12-16T02:14:12.477Z,11.63
2017-12-16T02:16:38.695Z,18.77
2017-12-16T02:19:04.882Z,16.87
2017-12-16T02:21:31.074Z,19.50
2017-12-16T02:23:57.297Z,7.83
2017-12-16T02:26:23.489Z,8.97
2017-12-16T02:28:49.681Z,7.37
2017-12-16T02:31:15.916Z,5.17
2017-12-16T02:33:42.089Z,18.20
2017-12-16T02:36:08.270Z,9.73
2017-12-16T02:38:34.482Z,9.70
2017-12-16T02:41:00.630Z,9.53
2017-12-16T02:43:26.777Z,8.57
2017-12-16T02:45:52.958Z,14.40
2017-12-16T02:48:19.190Z,18.03
2017-12-16T02:50:45.361Z,12.80
2017-12-16T02:53:11.588Z,10.23
2017-12-16T02:55:37.763Z,9.53
2017-12-16T02:58:03.943Z,8.17
2017-12-16T03:00:30.299Z,11.47
2017-12-16T03:02:56.471Z,8.53
2017-12-16T03:05:22.643Z,11.37
2017-12-16T03:07:48.864Z,20.03
2017-12-16T03:10:15.041Z,7.07
2017-12-16T03:12:41.231Z,11.40
2017-12-16T03:15:07.457Z,6.17
2017-12-16T03:17:33.732Z,7.70
2017-12-16T03:19:59.921Z,8.53
2017-12-16T03:22:26.151Z,5.13
2017-12-16T03:24:52.328Z,9.90
2017-12-16T03:27:18.509Z,7.53
2017-12-16T03:29:44.718Z,6.90
2017-12-16T03:32:11.079Z,6.10
2017-12-16T03:34:37.251Z,7.83
2017-12-16T03:37:03.454Z,4.10
2017-12-16T03:39:29.631Z,10.53
2017-12-16T03:41:55.811Z,14.33
2017-12-16T03:44:22.031Z,7.33
2017-12-16T03:46:48.211Z,13.30
2017-12-16T03:49:14.518Z,9.03
2017-12-16T03:51:40.741Z,8.33
2017-12-16T03:54:06.919Z,16.03
2017-12-16T03:56:33.188Z,11.73
2017-12-16T03:58:59.404Z,9.27
2017-12-16T04:01:25.691Z,7.97
2017-12-16T04:03:51.859Z,9.00
2017-12-16T04:06:18.086Z,11.73
2017-12-16T04:08:44.378Z,12.20
2017-12-16T04:11:10.768Z,11.30
2017-12-16T04:13:36.994Z,24.53
2017-12-16T04:16:03.217Z,13.53
2017-12-16T04:18:29.393Z,10.63
2017-12-16T04:20:55.696Z,7.43
2017-12-16T04:23:21.892Z,32.40
2017-12-16T04:25:48.069Z,4.13
2017-12-16T04:28:14.287Z,6.23
2017-12-16T04:30:40.453Z,8.87
2017-12-16T04:33:06.647Z,13.10
2017-12-16T04:35:33.240Z,9.63
2017-12-16T04:37:59.504Z,6.27
2017-12-16T04:40:25.731Z,9.60
2017-12-16T04:42:52.341Z,6.33
2017-12-16T04:45:18.579Z,4.07
2017-12-16T04:47:44.802Z,3.20
2017-12-16T04:50:11.020Z,10.83
2017-12-16T04:52:37.181Z,14.00
2017-12-16T04:55:03.374Z,4.50
2017-12-16T04:57:29.608Z,6.60
2017-12-16T04:59:55.777Z,3.93
2017-12-16T05:02:21.964Z,7.30
2017-12-16T05:04:48.184Z,9.40
2017-12-16T05:07:14.362Z,4.37
2017-12-16T05:09:40.554Z,10.50
2017-12-16T05:12:06.783Z,5.07
2017-12-16T05:14:32.964Z,4.57
2017-12-16T05:16:59.161Z,8.27
2017-12-16T05:19:25.404Z,6.63
2017-12-16T05:21:51.603Z,5.80
2017-12-16T05:24:17.778Z,5.97
2017-12-16T05:26:44.142Z,4.47
2017-12-16T05:29:10.359Z,9.37
2017-12-16T05:31:36.552Z,12.07
2017-12-16T05:34:02.770Z,4.43
2017-12-16T05:36:28.956Z,5.67
2017-12-16T05:38:55.142Z,5.10
2017-12-16T05:41:21.403Z,15.53
2017-12-16T05:43:47.598Z,5.97
2017-12-16T05:46:13.798Z,9.63
2017-12-16T05:48:40.015Z,9.60
2017-12-16T05:51:06.185Z,10.00
2017-12-16T05:53:32.358Z,9.20
2017-12-16T05:55:58.589Z,8.43
2017-12-16T05:58:24.773Z,16.77
2017-12-16T06:00:50.965Z,10.10
2017-12-16T06:03:17.200Z,4.03
2017-12-16T06:05:43.410Z,11.93
2017-12-16T06:08:09.583Z,7.50
2017-12-16T06:10:35.819Z,5.83
2017-12-16T06:13:02.008Z,5.63
2017-12-16T06:15:28.189Z,7.17
2017-12-16T06:17:54.409Z,5.73
2017-12-16T06:20:20.595Z,3.20
2017-12-16T06:22:46.785Z,32.97
2017-12-16T06:25:13.011Z,5.10
2017-12-16T06:27:39.201Z,3.43
2017-12-16T06:30:05.389Z,14.20
2017-12-16T06:32:31.642Z,7.37
2017-12-16T06:34:57.823Z,11.63
2017-12-16T06:37:24.004Z,6.37
2017-12-16T06:39:50.232Z,5.27
2017-12-16T06:42:16.419Z,7.10
2017-12-16T06:44:42.611Z,7.50
2017-12-16T06:47:08.820Z,11.17
2017-12-16T06:49:35.035Z,8.40
2017-12-16T06:52:01.236Z,8.80
2017-12-16T06:54:27.561Z,4.97
2017-12-16T06:56:53.731Z,6.03
2017-12-16T06:59:19.918Z,28.10
2017-12-16T07:01:46.133Z,5.67
2017-12-16T07:04:12.313Z,12.00
2017-12-16T07:06:38.486Z,7.13
2017-12-16T07:09:04.701Z,7.50
2017-12-16T07:11:30.880Z,2.77
2017-12-16T07:13:57.053Z,12.40
2017-12-16T07:16:23.314Z,14.53
2017-12-16T07:18:49.500Z,7.70
2017-12-16T07:21:15.690Z,5.40
2017-12-16T07:23:41.867Z,5.50
2017-12-16T07:26:08.038Z,4.77
2017-12-16T07:28:34.257Z,6.43
2017-12-16T07:31:00.432Z,7.83
2017-12-16T07:33:26.613Z,15.63
2017-12-16T07:35:52.840Z,4.67
2017-12-16T07:38:19.002Z,13.47
2017-12-16T07:40:45.186Z,7.67
2017-12-16T07:43:12.326Z,16.90
2017-12-16T07:45:38.498Z,7.37
2017-12-16T07:48:04.673Z,5.90
2017-12-16T07:50:30.885Z,16.80
2017-12-16T07:52:57.260Z,11.53
2017-12-16T07:55:23.452Z,6.67
2017-12-16T07:57:49.686Z,8.47
2017-12-16T08:00:15.859Z,16.13
2017-12-16T08:02:42.031Z,8.50
2017-12-16T08:05:08.281Z,9.33
2017-12-16T08:07:34.652Z,8.20
2017-12-16T08:10:00.841Z,8.30
2017-12-16T08:12:27.077Z,5.27
2017-12-16T08:14:53.279Z,4.33
2017-12-16T08:17:19.481Z,4.47
2017-12-16T08:19:45.699Z,17.47
2017-12-16T08:22:11.882Z,9.57
2017-12-16T08:24:38.058Z,9.80
2017-12-16T08:27:04.287Z,4.60
2017-12-16T08:29:30.521Z,7.30
2017-12-16T08:31:56.676Z,4.97
2017-12-16T08:34:22.900Z,7.50
2017-12-16T08:36:49.087Z,7.60
2017-12-16T08:39:15.278Z,4.30
2017-12-16T08:41:41.508Z,8.73
2017-12-16T08:44:07.686Z,16.37
2017-12-16T08:46:33.906Z,10.43
2017-12-16T08:49:00.153Z,17.83
2017-12-16T08:51:26.333Z,9.83
2017-12-16T08:53:52.514Z,7.33
2017-12-16T08:56:18.732Z,5.90
2017-12-16T08:58:44.918Z,6.93
2017-12-16T09:01:11.107Z,5.60
2017-12-16T09:03:37.369Z,13.57
2017-12-16T09:06:03.686Z,16.13
2017-12-16T09:08:29.874Z,15.10
2017-12-16T09:10:56.087Z,12.93
2017-12-16T09:13:22.266Z,6.93
2017-12-16T09:15:48.448Z,11.57
2017-12-16T09:18:14.683Z,9.40
2017-12-16T09:20:40.881Z,28.67
2017-12-16T09:23:07.057Z,6.20
2017-12-16T09:25:33.257Z,7.20
2017-12-16T09:27:59.438Z,17.73
2017-12-16T09:30:25.638Z,25.73
2017-12-16T09:32:52.028Z,16.23
2017-12-16T09:35:18.226Z,7.80
2017-12-16T09:37:44.411Z,98.30
2017-12-16T09:40:10.644Z,39.10
2017-12-16T09:42:36.859Z,19.27
2017-12-16T09:45:03.045Z,11.73
2017-12-16T09:47:29.263Z,9.03
2017-12-16T09:49:55.457Z,87.00
2017-12-16T09:52:21.667Z,15.47
2017-12-16T09:54:47.876Z,17.73
2017-12-16T09:57:14.077Z,35.73
2017-12-16T09:59:40.272Z,27.87
2017-12-16T10:02:06.496Z,11.70
2017-12-16T10:04:32.682Z,13.03
2017-12-16T10:06:58.868Z,9.60
2017-12-16T10:09:25.078Z,7.03
2017-12-16T10:11:51.250Z,5.23
2017-12-16T10:14:17.419Z,7.13
2017-12-16T10:16:43.649Z,20.93
2017-12-16T10:19:09.840Z,11.27
2017-12-16T10:21:36.037Z,6.80
2017-12-16T10:24:02.370Z,18.03
2017-12-16T10:26:28.565Z,7.30
2017-12-16T10:28:54.774Z,6.77
2017-12-16T10:31:21.072Z,8.43
2017-12-16T10:33:47.259Z,8.63
2017-12-16T10:36:13.468Z,5.37
2017-12-16T10:38:39.697Z,8.20
2017-12-16T10:41:05.878Z,7.10
2017-12-16T10:43:32.064Z,14.00
2017-12-16T10:45:58.273Z,7.17
2017-12-16T10:48:24.470Z,7.40
2017-12-16T10:50:50.657Z,9.27
2017-12-16T10:53:16.910Z,7.87
2017-12-16T10:55:43.083Z,7.20
2017-12-16T10:58:09.260Z,7.03
2017-12-16T11:00:35.469Z,14.23
2017-12-16T11:03:01.655Z,27.07
2017-12-16T11:05:27.856Z,9.10
2017-12-16T11:07:54.140Z,7.80
2017-12-16T11:10:20.297Z,7.40
2017-12-16T11:12:46.484Z,14.40
2017-12-16T11:15:12.676Z,21.03
2017-12-16T11:17:38.846Z,6.77
2017-12-16T11:20:05.020Z,8.90
2017-12-16T11:22:31.244Z,10.73
2017-12-16T11:24:57.441Z,9.23
2017-12-16T11:27:23.653Z,5.83
2017-12-16T11:29:49.882Z,9.83
2017-12-16T11:32:16.087Z,12.17
2017-12-16T11:34:42.269Z,18.70
2017-12-16T11:37:08.494Z,7.43
2017-12-16T11:39:34.725Z,9.13
2017-12-16T11:42:00.886Z,10.60
2017-12-16T11:44:27.092Z,8.33
2017-12-16T11:46:53.256Z,7.93
2017-12-16T11:49:19.430Z,19.73
2017-12-16T11:51:45.640Z,75.43
2017-12-16T11:54:11.966Z,21.77
2017-12-16T11:56:38.138Z,14.10
2017-12-16T11:59:04.373Z,12.57
2017-12-16T12:01:30.550Z,45.73
2017-12-16T12:03:56.740Z,18.07
2017-12-16T12:06:22.961Z,15.80
2017-12-16T12:08:49.170Z,8.67
2017-12-16T12:11:15.368Z,9.00
2017-12-16T12:13:41.578Z,7.87
2017-12-16T12:16:08.248Z,8.30
2017-12-16T12:18:34.434Z,12.83
2017-12-16T12:21:00.669Z,33.43
2017-12-16T12:23:26.832Z,7.10
2017-12-16T12:25:53.010Z,3.83
2017-12-16T12:28:19.214Z,74.00
2017-12-16T12:30:45.438Z,18.00
2017-12-16T12:33:11.648Z,20.70
2017-12-16T12:35:37.858Z,7.23
2017-12-16T12:38:04.048Z,11.67
2017-12-16T12:40:30.226Z,9.23
2017-12-16T12:42:56.543Z,16.93
2017-12-16T12:45:22.741Z,7.70
2017-12-16T12:47:48.919Z,9.80
2017-12-16T12:50:15.154Z,5.90
2017-12-16T12:52:41.391Z,9.00
2017-12-16T12:55:07.564Z,23.63
2017-12-16T12:57:33.796Z,22.20
2017-12-16T13:00:00.007Z,32.97
2017-12-16T13:02:26.197Z,15.33
2017-12-16T13:04:52.438Z,18.43
2017-12-16T13:07:18.630Z,17.27
2017-12-16T13:09:44.813Z,27.27
2017-12-16T13:12:11.031Z,32.47
2017-12-16T13:14:37.235Z,15.07
2017-12-16T13:17:03.507Z,4.80
2017-12-16T13:19:29.731Z,7.27
2017-12-16T13:21:55.946Z,12.77
2017-12-16T13:24:22.273Z,13.60
2017-12-16T13:26:48.442Z,6.93
2017-12-16T13:29:14.671Z,20.53
2017-12-16T13:31:40.866Z,25.47
2017-12-16T13:34:07.318Z,8.53
2017-12-16T13:36:33.522Z,9.67
2017-12-16T13:38:59.980Z,23.20
2017-12-16T13:41:26.215Z,14.10
2017-12-16T13:43:52.487Z,8.00
2017-12-16T13:46:18.695Z,6.80
2017-12-16T13:48:44.928Z,17.10
2017-12-16T13:51:11.118Z,10.70
2017-12-16T13:53:37.373Z,18.40
2017-12-16T13:56:03.591Z,8.17
2017-12-16T13:58:29.852Z,11.20
2017-12-16T14:00:56.049Z,31.87
2017-12-16T14:03:22.277Z,16.10
2017-12-16T14:05:48.451Z,13.40
2017-12-16T14:08:14.626Z,23.97
2017-12-16T14:10:40.849Z,25.03
2017-12-16T14:13:07.030Z,22.50
2017-12-16T14:15:33.213Z,43.17
2017-12-16T14:17:59.465Z,31.00
2017-12-16T14:20:25.651Z,15.50
2017-12-16T14:22:51.987Z,23.13
2017-12-16T14:25:18.211Z,26.87
2017-12-16T14:27:44.592Z,9.63
2017-12-16T14:30:10.777Z,13.97
2017-12-16T14:32:37.001Z,30.47
2017-12-16T14:35:03.180Z,50.63
2017-12-16T14:37:29.965Z,29.93
2017-12-16T14:39:56.336Z,17.10
2017-12-16T14:42:22.597Z,88.83
2017-12-16T14:44:49.031Z,51.70
2017-12-16T14:47:15.426Z,25.13
2017-12-16T14:49:41.661Z,30.67
2017-12-16T14:52:07.852Z,37.43
2017-12-16T14:54:34.142Z,28.30
2017-12-16T14:57:00.366Z,20.47
2017-12-16T14:59:26.543Z,34.67
2017-12-16T15:01:52.799Z,45.97
2017-12-16T15:04:19.047Z,32.40
2017-12-16T15:06:45.271Z,31.30
2017-12-16T15:09:11.488Z,30.63
2017-12-16T15:11:37.718Z,77.60
2017-12-16T15:14:03.905Z,39.33
2017-12-16T15:16:30.219Z,38.93
2017-12-16T15:18:56.466Z,33.77
2017-12-16T15:21:22.833Z,33.43
2017-12-16T15:23:48.996Z,37.83
2017-12-16T15:26:15.309Z,47.47
2017-12-16T15:28:41.532Z,39.20
2017-12-16T15:31:07.753Z,45.83
2017-12-16T15:33:34.407Z,35.70
2017-12-16T15:36:00.587Z,36.63
2017-12-16T15:38:26.940Z,39.13
2017-12-16T15:40:53.160Z,42.40
2017-12-16T15:43:19.409Z,51.73
2017-12-16T15:45:45.651Z,51.20
2017-12-16T15:48:11.850Z,44.70
2017-12-16T15:50:38.105Z,68.07
2017-12-16T15:53:04.283Z,42.23
2017-12-16T15:55:30.502Z,51.77
2017-12-16T15:57:56.679Z,59.60
2017-12-16T16:00:23.026Z,33.23
2017-12-16T16:02:49.249Z,47.87
2017-12-16T16:05:15.478Z,62.53
2017-12-16T16:07:41.656Z,91.47
2017-12-16T16:10:07.886Z,162.37
2017-12-16T16:12:34.250Z,126.83
2017-12-16T16:15:02.464Z,126.30
2017-12-16T16:17:29.079Z,103.97
2017-12-16T16:19:55.251Z,78.73
2017-12-16T16:22:21.438Z,45.83
2017-12-16T16:24:47.656Z,76.13
2017-12-16T16:27:13.994Z,56.93
2017-12-16T16:29:40.183Z,53.50
2017-12-16T16:32:06.435Z,45.20
2017-12-16T16:34:32.708Z,36.30
2017-12-16T16:36:59.083Z,36.07
2017-12-16T16:39:25.300Z,55.23
2017-12-16T16:41:51.771Z,52.87
2017-12-16T16:44:18.022Z,60.63
2017-12-16T16:46:44.438Z,57.73
2017-12-16T16:49:10.610Z,55.03
2017-12-16T16:51:36.799Z,56.10
2017-12-16T16:54:03.014Z,84.27
2017-12-16T16:56:29.197Z,63.37
2017-12-16T16:58:55.748Z,76.10
2017-12-16T17:01:21.987Z,85.00
2017-12-16T17:03:48.244Z,61.20
2017-12-16T17:06:14.648Z,41.23
2017-12-16T17:08:40.914Z,42.20
2017-12-16T17:11:07.088Z,36.13
2017-12-16T17:13:33.269Z,36.10
2017-12-16T17:15:59.498Z,41.43
2017-12-16T17:18:25.685Z,60.53
2017-12-16T17:20:51.871Z,117.73
2017-12-16T17:23:18.275Z,72.50
2017-12-16T17:25:44.508Z,80.17
2017-12-16T17:28:10.671Z,147.50
2017-12-16T17:30:36.890Z,194.53
2017-12-16T17:33:03.072Z,85.37
2017-12-16T17:35:29.273Z,83.73
2017-12-16T17:37:55.631Z,93.20
2017-12-16T17:40:22.292Z,70.10
2017-12-16T17:42:48.551Z,69.10
2017-12-16T17:45:14.995Z,66.77
2017-12-16T17:47:41.150Z,63.03
2017-12-16T17:50:07.319Z,81.00
2017-12-16T17:52:33.577Z,57.00
2017-12-16T17:55:00.035Z,68.63
2017-12-16T17:57:26.278Z,49.70
2017-12-16T17:59:52.451Z,52.20
2017-12-16T18:02:18.640Z,44.60
2017-12-16T18:04:44.869Z,40.17
2017-12-16T18:07:11.050Z,31.83
2017-12-16T18:09:37.251Z,33.53
2017-12-16T18:12:03.512Z,37.40
2017-12-16T18:14:29.895Z,35.30
2017-12-16T18:16:56.078Z,55.23
2017-12-16T18:19:22.302Z,57.37
2017-12-16T18:21:48.505Z,47.20
2017-12-16T18:24:14.813Z,53.93
2017-12-16T18:26:41.134Z,45.93
2017-12-16T18:29:07.447Z,59.17
2017-12-16T18:31:33.644Z,58.77
2017-12-16T18:33:59.931Z,58.57
2017-12-16T18:36:26.105Z,46.37
2017-12-16T18:38:52.286Z,57.80
2017-12-16T18:41:18.521Z,88.00
2017-12-16T18:43:44.721Z,61.87
2017-12-16T18:46:10.913Z,71.90
2017-12-16T18:48:37.126Z,75.90
2017-12-16T18:51:03.323Z,61.23
2017-12-16T18:53:29.556Z,43.50
2017-12-16T18:55:55.779Z,40.83
2017-12-16T18:58:21.966Z,36.50
2017-12-16T19:00:48.149Z,31.20
2017-12-16T19:03:14.381Z,38.83
2017-12-16T19:05:40.579Z,35.53
2017-12-16T19:08:06.773Z,55.40
2017-12-16T19:10:32.998Z,44.70
2017-12-16T19:12:59.226Z,54.73
2017-12-16T19:15:25.457Z,40.13
2017-12-16T19:17:51.680Z,45.83
2017-12-16T19:20:17.869Z,36.83
2017-12-16T19:22:44.058Z,42.67
2017-12-16T19:25:10.287Z,36.37
2017-12-16T19:27:36.482Z,37.97
2017-12-16T19:30:02.781Z,42.63
2017-12-16T19:32:29.026Z,31.20
2017-12-16T19:34:55.216Z,40.20
2017-12-16T19:37:21.431Z,25.93
2017-12-16T19:39:47.668Z,26.97
2017-12-16T19:42:13.866Z,51.60
2017-12-16T19:44:40.053Z,36.60
2017-12-16T19:47:06.283Z,29.70
2017-12-16T19:49:32.612Z,29.70
2017-12-16T19:51:58.798Z,95.43
2017-12-16T19:54:25.022Z,164.60
2017-12-16T19:56:51.211Z,34.63
2017-12-16T19:59:17.450Z,38.73
2017-12-16T20:01:43.706Z,41.00
2017-12-16T20:04:09.971Z,36.00
2017-12-16T20:06:36.143Z,31.17
2017-12-16T20:09:02.358Z,30.77
2017-12-16T20:11:28.548Z,29.03
2017-12-16T20:13:54.744Z,33.23
2017-12-16T20:16:20.956Z,28.80
2017-12-16T20:18:47.146Z,25.90
2017-12-16T20:21:13.337Z,27.17
2017-12-16T20:23:39.584Z,41.73
2017-12-16T20:26:05.802Z,27.83
2017-12-16T20:28:31.988Z,31.87
2017-12-16T20:30:58.206Z,23.00
2017-12-16T20:33:24.404Z,18.20
2017-12-16T20:35:50.590Z,25.67
2017-12-16T20:38:16.819Z,20.53
2017-12-16T20:40:43.189Z,24.97
2017-12-16T20:43:09.382Z,23.77
2017-12-16T20:45:35.607Z,18.60
2017-12-16T20:48:01.811Z,18.43
2017-12-16T20:50:27.998Z,17.20
2017-12-16T20:52:54.232Z,13.13
2017-12-16T20:55:20.431Z,13.87
2017-12-16T20:57:46.631Z,36.33
2017-12-16T21:00:12.923Z,21.63
2017-12-16T21:02:39.110Z,30.20
2017-12-16T21:05:05.312Z,23.70
2017-12-16T21:07:31.520Z,26.53
2017-12-16T21:09:57.708Z,15.47
2017-12-16T21:12:23.900Z,21.43
2017-12-16T21:14:50.095Z,25.70
2017-12-16T21:17:16.296Z,12.23
2017-12-16T21:19:42.482Z,12.80
2017-12-16T21:22:08.717Z,15.60
2017-12-16T21:24:34.898Z,18.60
2017-12-16T21:27:01.072Z,19.10
2017-12-16T21:29:27.285Z,17.60
2017-12-16T21:31:53.466Z,16.67
2017-12-16T21:34:19.652Z,28.43
2017-12-16T21:36:45.886Z,15.47
2017-12-16T21:39:12.076Z,22.70
2017-12-16T21:41:38.824Z,9.83
2017-12-16T21:44:05.036Z,6.77
2017-12-16T21:46:31.248Z,8.27
2017-12-16T21:48:57.417Z,6.80
2017-12-16T21:51:23.626Z,9.03
2017-12-16T21:53:49.781Z,8.60
2017-12-16T21:56:15.962Z,9.77
2017-12-16T21:58:42.149Z,11.77
2017-12-16T22:01:08.323Z,9.50
2017-12-16T22:03:34.533Z,11.87
2017-12-16T22:06:00.742Z,10.60
2017-12-16T22:08:26.893Z,12.73
2017-12-16T22:10:53.087Z,24.93
2017-12-16T22:13:19.285Z,9.60
2017-12-16T22:15:45.449Z,6.50
2017-12-16T22:18:11.601Z,6.60
2017-12-16T22:20:37.810Z,8.53
2017-12-16T22:23:03.994Z,6.33
2017-12-16T22:25:30.177Z,6.30
2017-12-16T22:27:56.381Z,6.37
2017-12-16T22:30:22.561Z,4.77
2017-12-16T22:32:48.854Z,7.53
2017-12-16T22:35:15.051Z,5.83
2017-12-16T22:37:41.218Z,11.67
2017-12-16T22:40:07.392Z,5.70
2017-12-16T22:42:33.608Z,8.23
2017-12-16T22:44:59.800Z,9.27
2017-12-16T22:47:25.983Z,8.20
2017-12-16T22:49:52.201Z,8.90
2017-12-16T22:52:18.447Z,5.90
2017-12-16T22:54:44.625Z,4.37
2017-12-16T22:57:10.857Z,6.77
2017-12-16T22:59:37.044Z,8.10
2017-12-16T23:02:03.253Z,4.20
2017-12-16T23:04:29.468Z,4.67
2017-12-16T23:06:55.660Z,4.57
2017-12-16T23:09:21.833Z,5.70
2017-12-16T23:11:48.016Z,4.07
2017-12-16T23:14:14.198Z,4.20
2017-12-16T23:16:40.391Z,4.90
2017-12-16T23:19:06.618Z,9.90
2017-12-16T23:21:32.804Z,12.00
2017-12-16T23:23:58.982Z,11.93
2017-12-16T23:26:25.176Z,11.13
2017-12-16T23:28:51.347Z,11.17
2017-12-16T23:31:17.515Z,7.67
2017-12-16T23:33:43.730Z,16.70
2017-12-16T23:36:09.918Z,10.53
2017-12-16T23:38:36.259Z,7.80
2017-12-16T23:41:02.470Z,9.37
2017-12-16T23:43:28.644Z,4.70
2017-12-16T23:45:54.813Z,5.40
2017-12-16T23:48:21.034Z,7.37
2017-12-16T23:50:47.217Z,9.00
2017-12-16T23:53:13.400Z,4.50
2017-12-16T23:55:39.778Z,5.13
2017-12-16T23:58:06.081Z,12.80
